Time;durP1;ratioP1;P1;durP2;ratioP2;P2;SDS_P1;SDS_P2;PMS_P1;PMS_P2;Temp;Humidity;BMP_temperature;BMP_pressure;BME280_temperature;BME280_humidity;BME280_pressure;Samples;Min_cycle;Max_cycle;Signal;HPM_P1;HPM_P2
2022/01/05 00:01:36;;;;;;;0.95;0.95;;;;;;;4.62;98.97;97322.66;4916573;29;20035;-74
2022/01/05 00:04:02;;;;;;;1.40;1.30;;;;;;;4.72;99.04;97324.16;4916425;29;20059;-75
2022/01/05 00:06:27;;;;;;;0.70;0.70;;;;;;;4.75;98.78;97324.13;4911893;29;20465;-75
2022/01/05 00:08:52;;;;;;;0.70;0.70;;;;;;;4.67;99.14;97320.84;4908548;29;20488;-75
2022/01/05 00:11:18;;;;;;;0.70;0.70;;;;;;;4.65;99.20;97314.91;4916544;29;20027;-76
2022/01/05 00:13:43;;;;;;;0.68;0.68;;;;;;;4.70;99.72;97318.22;4916301;29;20390;-75
2022/01/05 00:16:09;;;;;;;1.63;1.00;;;;;;;4.64;100.00;97314.06;4916212;29;20064;-74
2022/01/05 00:18:34;;;;;;;0.60;0.60;;;;;;;4.54;99.33;97309.09;4916424;29;20075;-74
2022/01/05 00:21:01;;;;;;;0.68;0.68;;;;;;;4.68;98.36;97312.25;4915912;29;20465;-74
2022/01/05 00:23:27;;;;;;;0.70;0.70;;;;;;;4.69;98.54;97308.84;4916199;29;20020;-75
2022/01/05 00:25:52;;;;;;;0.50;0.50;;;;;;;4.64;97.97;97318.31;4915900;29;20043;-75
2022/01/05 00:28:18;;;;;;;0.40;0.40;;;;;;;4.57;98.00;97319.31;4916202;29;20040;-75
2022/01/05 00:30:43;;;;;;;1.10;1.02;;;;;;;4.68;99.38;97307.13;4916176;29;20096;-76
2022/01/05 00:33:08;;;;;;;0.63;0.63;;;;;;;4.64;99.19;97316.63;4916006;29;20028;-75
2022/01/05 00:49:01;;;;;;;0.43;0.43;;;;;;;4.64;96.38;97290.09;4896635;29;20546;-76
2022/01/05 00:51:26;;;;;;;0.50;0.50;;;;;;;4.69;99.21;97287.44;4896967;29;20032;-76
2022/01/05 00:53:52;;;;;;;0.60;0.60;;;;;;;4.86;98.83;97281.13;4897061;29;20024;-76
2022/01/05 00:56:17;;;;;;;0.40;0.40;;;;;;;4.77;97.66;97271.03;4896840;29;20181;-76
2022/01/05 00:58:42;;;;;;;0.40;0.40;;;;;;;4.77;97.01;97265.91;4896979;29;20076;-76
2022/01/05 05:15:42;;;;;;;0.50;0.50;;;;;;;4.48;99.53;97401.53;5770205;23;20048;-74
2022/01/05 05:18:07;;;;;;;0.50;0.50;;;;;;;4.39;100.00;97398.25;4919616;29;20036;-74
2022/01/05 05:20:33;;;;;;;0.40;0.40;;;;;;;4.43;100.00;97398.19;4919469;29;20039;-74
2022/01/05 05:23:03;;;;;;;0.80;0.80;;;;;;;4.58;100.00;97409.06;4919594;29;20020;-74
2022/01/05 05:25:28;;;;;;;;;;;;;;;4.50;100.00;97421.19;4920121;29;20028;-74
2022/01/05 05:27:53;;;;;;;0.40;0.40;;;;;;;4.48;100.00;97422.91;4919232;29;20265;-74
2022/01/05 05:30:19;;;;;;;0.50;0.50;;;;;;;4.62;100.00;97420.13;4957161;23;20059;-74
2022/01/05 05:32:45;;;;;;;0.50;0.50;;;;;;;4.59;100.00;97430.41;4919354;29;20028;-72
2022/01/05 05:35:10;;;;;;;0.50;0.50;;;;;;;3.95;98.85;97500.56;4919322;29;20537;-74
2022/01/05 05:37:36;;;;;;;0.50;0.50;;;;;;;2.88;97.94;97527.25;4914773;29;20017;-74
2022/01/05 05:40:02;;;;;;;0.65;0.65;;;;;;;2.34;98.71;97547.19;4915533;29;20028;-74
2022/01/05 05:42:28;;;;;;;1.20;0.88;;;;;;;2.27;100.00;97551.47;4919092;29;20393;-74
2022/01/05 05:44:53;;;;;;;0.47;0.47;;;;;;;2.20;100.00;97571.09;4919165;29;20038;-75
2022/01/05 05:47:19;;;;;;;0.55;0.55;;;;;;;2.22;100.00;97579.59;4918837;29;20028;-74
2022/01/05 05:49:45;;;;;;;0.50;0.50;;;;;;;2.30;100.00;97582.97;4919040;29;20020;-74
2022/01/05 05:52:12;;;;;;;0.60;0.60;;;;;;;2.33;100.00;97591.50;4918986;29;20503;-73
2022/01/05 05:54:37;;;;;;;0.50;0.50;;;;;;;2.12;100.00;97598.38;4918927;29;20493;-71
2022/01/05 05:57:03;;;;;;;0.68;0.68;;;;;;;2.12;100.00;97611.16;4918669;29;20063;-74
2022/01/05 05:59:29;;;;;;;0.60;0.60;;;;;;;2.00;100.00;97613.75;4918850;29;20024;-73
2022/01/05 06:01:54;;;;;;;0.90;0.90;;;;;;;2.00;100.00;97622.28;4918833;29;20079;-71
2022/01/05 06:04:20;;;;;;;0.70;0.70;;;;;;;1.92;100.00;97625.69;4918780;29;20020;-72
2022/01/05 06:06:45;;;;;;;0.90;0.90;;;;;;;1.82;100.00;97644.44;4918463;29;20024;-74
2022/01/05 06:09:11;;;;;;;0.70;0.70;;;;;;;1.92;100.00;97641.03;4909624;29;20103;-74
2022/01/05 06:11:36;;;;;;;0.57;0.57;;;;;;;1.83;100.00;97641.03;4899773;29;20115;-74
2022/01/05 06:14:01;;;;;;;0.60;0.60;;;;;;;2.12;100.00;97644.38;4899617;29;20067;-74
2022/01/05 06:16:27;;;;;;;0.50;0.50;;;;;;;2.19;100.00;97651.19;4899610;29;20048;-74
2022/01/05 06:18:52;;;;;;;1.30;1.17;;;;;;;2.16;100.00;97652.88;4899409;29;20111;-74
2022/01/05 06:21:18;;;;;;;0.65;0.65;;;;;;;2.13;100.00;97655.44;4899696;29;20033;-74
2022/01/05 06:23:43;;;;;;;0.82;0.82;;;;;;;2.17;100.00;97670.75;4899535;29;20024;-74
2022/01/05 06:26:09;;;;;;;0.60;0.60;;;;;;;2.29;100.00;97668.19;4899246;29;20028;-74
2022/01/05 06:28:34;;;;;;;0.73;0.73;;;;;;;2.28;100.00;97681.81;4899476;29;20105;-74
2022/01/05 06:30:59;;;;;;;1.10;1.10;;;;;;;2.30;100.00;97680.09;4899306;29;20028;-74
2022/01/05 06:33:25;;;;;;;0.70;0.70;;;;;;;2.35;100.00;97687.75;4899354;29;20036;-73
2022/01/05 06:35:50;;;;;;;0.47;0.47;;;;;;;2.43;100.00;97695.41;4901681;29;20029;-73
2022/01/05 06:38:15;;;;;;;0.63;0.63;;;;;;;2.37;100.00;97695.41;4916393;29;20493;-75
2022/01/05 06:40:41;;;;;;;1.02;1.02;;;;;;;2.45;100.00;97701.34;4899152;29;20517;-74
2022/01/05 06:43:06;;;;;;;0.70;0.70;;;;;;;2.51;100.00;97709.00;4899465;29;20160;-74
2022/01/05 06:45:31;;;;;;;1.70;1.60;;;;;;;2.43;100.00;97710.75;4897813;29;20478;-73
2022/01/05 06:47:58;;;;;;;0.80;0.80;;;;;;;2.26;100.00;97719.28;4899091;29;20231;-73
2022/01/05 06:50:24;;;;;;;0.60;0.60;;;;;;;2.26;100.00;97724.41;4898954;29;20123;-73
2022/01/05 06:52:50;;;;;;;0.73;0.73;;;;;;;2.30;100.00;97726.09;4899070;29;20032;-71
2022/01/05 06:55:16;;;;;;;0.55;0.55;;;;;;;2.15;100.00;97738.91;4898968;29;20036;-74
2022/01/05 06:57:41;;;;;;;0.73;0.73;;;;;;;2.09;100.00;97736.38;4898894;29;20111;-74
2022/01/05 07:00:11;;;;;;;0.70;0.70;;;;;;;2.13;100.00;97735.50;4898799;29;20028;-74
2022/01/05 07:02:37;;;;;;;0.57;0.57;;;;;;;2.17;100.00;97738.91;4899055;29;20033;-74
2022/01/05 07:05:04;;;;;;;1.00;1.00;;;;;;;2.36;100.00;97740.56;4898801;29;20438;-72
2022/01/05 07:07:30;;;;;;;0.93;0.93;;;;;;;2.46;100.00;97736.28;4913752;29;20031;-73
2022/01/05 07:09:55;;;;;;;0.55;0.55;;;;;;;2.38;100.00;97753.34;4902920;29;20025;-74
2022/01/05 07:12:20;;;;;;;1.90;0.77;;;;;;;2.56;100.00;97755.84;4898707;29;20047;-74
2022/01/05 07:14:46;;;;;;;0.93;0.93;;;;;;;2.68;100.00;97767.75;4898717;29;20039;-75
2022/01/05 07:17:11;;;;;;;0.50;0.50;;;;;;;2.62;100.00;97778.88;4898513;29;20028;-73
2022/01/05 07:19:36;;;;;;;0.52;0.52;;;;;;;2.70;100.00;97774.56;4898540;29;20511;-75
2022/01/05 07:22:02;;;;;;;0.52;0.52;;;;;;;2.59;100.00;97781.41;4898484;29;20025;-73
2022/01/05 07:24:27;;;;;;;0.88;0.88;;;;;;;2.43;100.00;97795.09;4898502;29;20028;-72
2022/01/05 07:26:53;;;;;;;0.65;0.65;;;;;;;2.14;100.00;97793.41;4898270;29;20386;-75
2022/01/05 07:29:19;;;;;;;0.93;0.93;;;;;;;2.27;100.00;97797.69;4897884;29;20068;-75
2022/01/05 07:31:45;;;;;;;0.50;0.50;;;;;;;2.13;100.00;97811.28;4896997;29;20033;-75
2022/01/05 07:34:11;;;;;;;0.70;0.70;;;;;;;2.07;100.00;97809.59;4898424;29;20696;-75
2022/01/05 07:36:37;;;;;;;2.40;1.80;;;;;;;1.97;100.00;97813.84;4906517;29;20467;-75
2022/01/05 07:39:05;;;;;;;0.50;0.50;;;;;;;1.96;100.00;97821.50;4909273;29;20028;-73
2022/01/05 07:41:35;;;;;;;0.47;0.47;;;;;;;1.79;100.00;97830.03;4898150;29;20040;-75
2022/01/05 07:44:00;;;;;;;2.53;2.33;;;;;;;1.68;100.00;97841.91;4898207;29;20080;-75
2022/01/05 07:46:26;;;;;;;0.73;0.73;;;;;;;1.64;100.00;97852.94;4897887;29;20025;-75
2022/01/05 07:48:51;;;;;;;0.80;0.80;;;;;;;1.59;100.00;97857.19;4898182;29;20024;-75
2022/01/05 07:51:17;;;;;;;0.93;0.93;;;;;;;1.56;100.00;97849.53;4897931;29;20039;-75
2022/01/05 07:53:42;;;;;;;1.08;1.08;;;;;;;1.45;100.00;97853.75;4897967;29;20032;-75
2022/01/05 07:56:08;;;;;;;2.45;2.25;;;;;;;1.47;100.00;97857.19;4897777;29;20071;-73
2022/01/05 07:58:37;;;;;;;0.90;0.90;;;;;;;1.48;100.00;97863.97;4897732;29;20076;-72
2022/01/05 08:01:04;;;;;;;1.00;1.00;;;;;;;1.38;100.00;97867.34;4897861;29;20033;-74
2022/01/05 08:03:33;;;;;;;1.77;1.63;;;;;;;1.54;100.00;97874.19;4897794;29;20576;-76
2022/01/05 08:06:02;;;;;;;1.33;1.27;;;;;;;1.54;100.00;97874.19;4901009;29;20170;-75
2022/01/05 08:08:28;;;;;;;0.70;0.70;;;;;;;1.65;100.00;97879.34;4913212;29;20034;-75
2022/01/05 08:10:53;;;;;;;0.75;0.75;;;;;;;1.82;100.00;97894.72;4897650;29;20119;-73
2022/01/05 08:13:19;;;;;;;0.57;0.57;;;;;;;1.72;100.00;97889.56;4897529;29;20033;-75
2022/01/05 08:15:44;;;;;;;0.90;0.90;;;;;;;1.85;100.00;97897.28;4897352;29;20032;-75
2022/01/05 08:18:10;;;;;;;0.70;0.70;;;;;;;2.06;100.00;97899.88;4897496;29;20130;-75
2022/01/05 08:20:35;;;;;;;0.60;0.60;;;;;;;2.12;100.00;97904.97;4897509;29;20461;-75
2022/01/05 08:23:00;;;;;;;0.57;0.57;;;;;;;2.10;99.87;97901.56;4897506;29;20024;-75
2022/01/05 08:25:26;;;;;;;1.58;0.95;;;;;;;2.01;99.23;97912.63;4897485;29;20103;-73
2022/01/05 08:27:52;;;;;;;0.70;0.70;;;;;;;2.12;99.68;97915.19;4897315;29;20474;-75
2022/01/05 08:30:20;;;;;;;0.50;0.50;;;;;;;2.17;98.90;97921.16;4897147;29;20036;-73
2022/01/05 08:32:47;;;;;;;0.60;0.60;;;;;;;2.16;97.08;97924.56;4897436;29;20055;-75
2022/01/05 08:35:13;;;;;;;0.73;0.73;;;;;;;2.19;96.15;97932.25;4895920;29;20468;-75
2022/01/05 08:37:43;;;;;;;0.65;0.65;;;;;;;2.10;94.53;97932.22;4913441;29;20031;-73
2022/01/05 08:40:09;;;;;;;0.93;0.93;;;;;;;2.08;95.33;97933.94;4899704;29;20083;-74
2022/01/05 08:42:34;;;;;;;0.70;0.70;;;;;;;2.09;95.04;97939.91;4911678;29;20063;-75
2022/01/05 08:44:59;;;;;;;0.80;0.80;;;;;;;2.15;93.63;97950.97;4897139;29;20063;-75
2022/01/05 08:47:25;;;;;;;0.70;0.70;;;;;;;2.13;95.71;97956.91;4897066;29;20434;-70
2022/01/05 08:49:50;;;;;;;0.60;0.60;;;;;;;2.06;94.93;97956.06;4896964;29;20040;-72
2022/01/05 08:52:15;;;;;;;1.48;1.05;;;;;;;2.13;94.58;97960.34;4897219;29;20028;-73
2022/01/05 08:54:41;;;;;;;0.60;0.60;;;;;;;2.16;95.76;97968.00;4897089;29;20032;-75
2022/01/05 08:57:06;;;;;;;3.40;1.15;;;;;;;2.28;95.35;97968.06;4896942;29;20051;-75
2022/01/05 08:59:32;;;;;;;0.68;0.68;;;;;;;2.21;93.32;97970.56;4896846;29;20032;-75
2022/01/05 09:01:57;;;;;;;0.60;0.60;;;;;;;2.09;91.38;97976.53;4897078;29;20115;-75
2022/01/05 09:04:23;;;;;;;0.63;0.63;;;;;;;2.25;91.33;97983.38;4896964;29;20478;-75
2022/01/05 09:06:48;;;;;;;0.50;0.50;;;;;;;2.29;91.32;97979.97;4906843;29;20027;-75
2022/01/05 09:09:13;;;;;;;1.00;1.00;;;;;;;2.72;88.40;97990.25;4906544;29;20411;-74
2022/01/05 09:11:39;;;;;;;0.70;0.70;;;;;;;2.49;89.26;98004.72;4896862;29;20032;-73
2022/01/05 09:14:04;;;;;;;1.38;1.08;;;;;;;2.49;89.19;97994.50;4896967;29;20035;-73
2022/01/05 09:16:30;;;;;;;1.00;1.00;;;;;;;2.78;87.94;97992.81;4896678;29;20470;-75
2022/01/05 09:18:55;;;;;;;0.70;0.70;;;;;;;3.37;83.37;98011.50;4896811;29;20390;-75
2022/01/05 09:21:20;;;;;;;0.80;0.80;;;;;;;3.80;80.47;98012.25;4896784;29;20048;-73
2022/01/05 09:23:46;;;;;;;0.55;0.55;;;;;;;4.42;75.12;98001.72;4896876;29;20029;-75
2022/01/05 09:26:12;;;;;;;0.60;0.60;;;;;;;5.90;70.07;97993.53;4896668;29;20025;-73
2022/01/05 09:28:42;;;;;;;0.55;0.55;;;;;;;6.40;66.28;98001.50;4896782;29;20028;-73
2022/01/05 09:31:08;;;;;;;0.95;0.95;;;;;;;7.85;60.01;97991.31;4896620;29;20071;-74
2022/01/05 09:33:34;;;;;;;0.40;0.40;;;;;;;6.25;61.18;98012.84;4896671;29;20071;-75
2022/01/05 09:36:06;;;;;;;1.45;0.98;;;;;;;5.00;64.18;98026.97;4899986;29;20032;-74
2022/01/05 09:41:56;;;;;;;1.52;1.05;;;;;;;4.88;67.57;98033.91;4916654;29;20084;-76
2022/01/05 09:44:07;;;;;;;4.10;1.13;;;;;;;2.42;73.26;98052.44;4915572;29;20761;-74
2022/01/05 09:46:55;;;;;;;1.20;1.15;;;;;;;3.34;72.23;98053.34;4915266;29;20020;-71
2022/01/05 09:49:31;;;;;;;1.38;1.27;;;;;;;3.73;70.26;98066.94;4914623;29;20028;-74
2022/01/05 09:52:03;;;;;;;5.43;2.78;;;;;;;3.64;70.77;98072.09;4900366;29;20084;-75
2022/01/05 09:54:29;;;;;;;2.47;2.13;;;;;;;2.54;73.41;98084.84;4899310;29;20103;-73
2022/01/05 09:56:54;;;;;;;3.65;1.40;;;;;;;2.26;75.68;98087.28;4898587;29;20131;-75
2022/01/05 09:59:19;;;;;;;1.50;1.48;;;;;;;2.11;76.46;98086.38;4900022;29;20056;-74
2022/01/05 10:01:45;;;;;;;0.95;0.95;;;;;;;2.24;76.82;98089.00;4907439;29;20072;-74
2022/01/05 10:04:13;;;;;;;0.98;0.98;;;;;;;2.41;75.47;98090.75;4908464;29;20035;-71
2022/01/05 10:06:39;;;;;;;0.65;0.65;;;;;;;2.64;74.09;98086.56;4918329;29;20492;-72
2022/01/05 10:09:05;;;;;;;7.13;3.58;;;;;;;2.38;75.85;98085.66;4910588;29;20024;-72
2022/01/05 10:11:30;;;;;;;1.77;1.67;;;;;;;2.31;74.64;98090.72;4902378;29;20031;-72
2022/01/05 10:13:56;;;;;;;0.95;0.95;;;;;;;2.30;77.00;98091.56;4899570;29;20032;-74
2022/01/05 10:16:21;;;;;;;0.73;0.73;;;;;;;2.21;76.44;98104.31;4899547;29;20029;-75
2022/01/05 10:18:46;;;;;;;0.73;0.73;;;;;;;2.41;77.22;98101.81;4899672;29;20029;-75
2022/01/05 10:21:14;;;;;;;0.70;0.70;;;;;;;2.52;78.54;98104.44;4899590;29;20029;-74
2022/01/05 10:23:46;;;;;;;0.60;0.60;;;;;;;2.68;78.85;98106.19;4899503;29;20025;-75
2022/01/05 10:26:29;;;;;;;0.90;0.90;;;;;;;3.06;76.19;98102.84;4899396;29;20052;-73
2022/01/05 10:29:20;;;;;;;0.82;0.82;;;;;;;3.23;74.88;98105.41;4899556;29;20158;-75
2022/01/05 10:31:52;;;;;;;0.82;0.82;;;;;;;3.81;70.18;98110.47;4899417;29;20084;-74
2022/01/05 10:34:26;;;;;;;1.75;1.65;;;;;;;6.07;61.30;98100.50;4913828;29;20451;-74
2022/01/05 10:37:04;;;;;;;0.50;0.50;;;;;;;5.72;58.41;98109.41;4903257;29;20047;-75
2022/01/05 10:39:37;;;;;;;1.08;1.08;;;;;;;4.32;61.78;98122.28;4906828;29;20025;-73
2022/01/05 10:42:08;;;;;;;0.60;0.60;;;;;;;6.20;60.64;98109.78;4909974;29;20028;-73
2022/01/05 10:44:34;;;;;;;0.40;0.40;;;;;;;8.01;55.65;98107.94;4910845;29;20032;-74
2022/01/05 10:47:00;;;;;;;0.43;0.43;;;;;;;7.59;53.41;98117.25;4916758;29;20020;-76
2022/01/05 10:49:25;;;;;;;1.95;0.95;;;;;;;7.16;52.10;98120.53;4916629;29;20036;-75
2022/01/05 10:51:52;;;;;;;0.77;0.77;;;;;;;5.66;58.34;98132.59;4918058;29;20079;-75
2022/01/05 10:54:23;;;;;;;0.45;0.45;;;;;;;4.12;62.41;98137.75;4917937;29;20028;-73
2022/01/05 10:56:49;;;;;;;0.80;0.63;;;;;;;3.65;63.19;98139.53;4917676;29;20036;-74
2022/01/05 10:59:23;;;;;;;0.70;0.70;;;;;;;3.46;66.10;98133.56;4917977;29;20031;-74
2022/01/05 11:01:51;;;;;;;0.57;0.57;;;;;;;3.41;66.21;98125.88;4918030;29;20051;-76
2022/01/05 11:04:20;;;;;;;0.60;0.60;;;;;;;3.05;65.69;98131.84;4917028;29;20375;-72
2022/01/05 11:07:03;;;;;;;1.65;1.60;;;;;;;3.14;66.90;98136.94;4917268;29;20024;-73
2022/01/05 11:09:28;;;;;;;1.95;0.70;;;;;;;3.35;67.67;98131.88;4891081;29;20127;-75
2022/01/05 11:11:54;;;;;;;0.50;0.50;;;;;;;3.09;67.36;98131.84;4914396;29;20115;-76
2022/01/05 11:14:29;;;;;;;0.70;0.70;;;;;;;3.03;69.11;98138.66;4909734;29;20485;-72
2022/01/05 11:16:55;;;;;;;0.60;0.60;;;;;;;3.13;67.10;98140.38;4917313;29;20025;-76
2022/01/05 11:19:22;;;;;;;0.57;0.57;;;;;;;3.19;68.04;98139.50;4917501;29;20071;-76
2022/01/05 11:22:17;;;;;;;1.92;1.83;;;;;;;3.24;65.88;98138.69;4917568;29;20059;-76
2022/01/05 11:24:44;;;;;;;0.60;0.60;;;;;;;3.15;66.05;98148.91;4917784;29;20481;-74
2022/01/05 11:27:15;;;;;;;0.50;0.50;;;;;;;3.34;65.58;98154.91;4917163;29;20031;-75
2022/01/05 11:29:43;;;;;;;0.60;0.60;;;;;;;3.16;65.32;98140.38;4928841;23;20067;-74
2022/01/05 11:32:12;;;;;;;1.23;1.23;;;;;;;4.93;60.46;98143.38;4898250;29;20450;-76
2022/01/05 11:34:38;;;;;;;;;;;;;;;4.93;58.30;98139.09;4913189;29;20434;-76
2022/01/05 11:37:07;;;;;;;0.40;0.40;;;;;;;4.11;62.86;98145.44;4905738;29;19911;-75
2022/01/05 11:39:34;;;;;;;3.72;1.15;;;;;;;3.26;66.74;98154.91;4902439;29;20036;-75
2022/01/05 11:42:07;;;;;;;0.50;0.50;;;;;;;3.14;67.31;98147.19;4913983;29;20101;-74
2022/01/05 11:44:43;;;;;;;0.55;0.55;;;;;;;3.13;64.66;98145.50;4902427;29;20036;-74
2022/01/05 11:47:19;;;;;;;0.75;0.75;;;;;;;2.93;65.97;98148.00;4916811;29;20080;-74
2022/01/05 11:49:44;;;;;;;4.63;2.78;;;;;;;4.79;60.18;98146.03;4916994;29;20035;-75
2022/01/05 11:52:09;;;;;;;0.50;0.50;;;;;;;5.95;56.50;98147.78;4916911;29;20028;-76
2022/01/05 11:54:35;;;;;;;1.77;1.15;;;;;;;4.47;60.20;98156.44;4916982;29;20028;-73
2022/01/05 11:57:12;;;;;;;0.45;0.45;;;;;;;3.88;63.44;98147.19;4916560;29;20028;-74
2022/01/05 11:59:41;;;;;;;1.98;0.93;;;;;;;4.03;64.15;98157.41;4916843;29;20124;-78
2022/01/05 12:02:15;;;;;;;0.57;0.57;;;;;;;3.63;62.15;98167.72;4916678;29;20028;-78
2022/01/05 12:05:02;;;;;;;1.00;0.93;;;;;;;3.27;64.13;98171.09;4916879;29;20024;-75
2022/01/05 12:07:57;;;;;;;0.60;0.60;;;;;;;3.18;63.83;98168.53;4909037;29;20012;-76
2022/01/05 12:10:23;;;;;;;0.50;0.50;;;;;;;3.43;66.64;98164.28;4908097;29;20402;-76
2022/01/05 12:13:07;;;;;;;1.27;1.15;;;;;;;3.85;62.31;98164.28;4907707;29;20032;-75
2022/01/05 12:15:38;;;;;;;0.80;0.80;;;;;;;4.06;60.98;98162.53;4878711;29;20128;-72
2022/01/05 12:18:03;;;;;;;1.75;0.70;;;;;;;4.20;64.20;98171.03;4878731;29;20039;-74
2022/01/05 12:20:37;;;;;;;0.52;0.52;;;;;;;3.57;64.55;98172.81;4878952;29;20449;-78
2022/01/05 12:23:25;;;;;;;1.23;1.13;;;;;;;3.54;63.55;98170.28;4878783;29;20028;-74
2022/01/05 12:28:30;;;;;;;1.88;0.80;;;;;;;3.24;66.93;98187.34;4878649;29;20029;-73
2022/01/05 12:30:56;;;;;;;6.72;1.13;;;;;;;3.30;64.23;98189.88;4878540;29;20052;-74
2022/01/05 12:33:22;;;;;;;0.60;0.60;;;;;;;3.08;64.49;98186.44;4878565;29;20021;-75
2022/01/05 12:35:49;;;;;;;1.75;0.70;;;;;;;3.29;66.92;98198.44;4880840;29;20483;-77
2022/01/05 12:38:35;;;;;;;0.60;0.60;;;;;;;3.24;65.76;98200.13;4906459;29;20040;-73
2022/01/05 12:41:24;;;;;;;0.75;0.75;;;;;;;3.28;65.90;98196.69;4913782;29;20394;-74
2022/01/05 12:43:51;;;;;;;0.60;0.60;;;;;;;3.09;65.27;98197.50;4899956;29;20024;-74
2022/01/05 12:46:32;;;;;;;1.02;1.02;;;;;;;3.25;63.99;98196.72;4896985;29;20761;-73
2022/01/05 12:48:58;;;;;;;1.65;1.55;;;;;;;3.30;63.22;98195.00;4897148;29;20141;-74
2022/01/05 12:51:39;;;;;;;1.55;1.38;;;;;;;3.59;64.63;98202.72;4897004;29;20032;-72
2022/01/05 12:54:18;;;;;;;0.57;0.57;;;;;;;3.36;63.57;98214.66;4897177;29;20028;-74
2022/01/05 12:56:47;;;;;;;10.40;1.08;;;;;;;3.52;62.92;98205.25;4896933;29;20028;-73
2022/01/05 12:59:34;;;;;;;1.37;1.27;;;;;;;3.32;63.40;98203.53;4897084;29;20091;-74
2022/01/05 13:02:07;;;;;;;1.02;1.02;;;;;;;3.31;63.99;98204.41;4897318;29;20751;-73
2022/01/05 13:04:34;;;;;;;2.55;1.05;;;;;;;3.02;63.63;98203.47;4897016;29;20493;-72
2022/01/05 13:07:04;;;;;;;0.60;0.60;;;;;;;2.74;63.51;98208.50;4904202;29;20028;-73
2022/01/05 13:09:37;;;;;;;0.68;0.68;;;;;;;2.98;63.99;98212.00;4900311;29;20497;-70
2022/01/05 13:12:05;;;;;;;0.50;0.50;;;;;;;3.37;63.12;98205.25;4912586;29;20043;-72
2022/01/05 13:14:35;;;;;;;0.60;0.60;;;;;;;3.68;63.98;98207.00;4900990;29;20028;-72
2022/01/05 13:17:02;;;;;;;0.50;0.50;;;;;;;3.79;62.79;98204.44;4915661;29;20525;-71
2022/01/05 13:19:41;;;;;;;0.40;0.40;;;;;;;3.92;62.06;98206.13;4915938;29;20032;-73
2022/01/05 13:22:19;;;;;;;0.60;0.60;;;;;;;3.69;64.06;98208.69;4915753;29;20043;-72
2022/01/05 13:25:05;;;;;;;0.50;0.50;;;;;;;4.02;63.43;98206.97;4915746;29;20040;-73
2022/01/05 13:27:31;;;;;;;0.57;0.57;;;;;;;3.93;63.23;98207.00;4914442;29;20025;-74
2022/01/05 13:29:59;;;;;;;1.77;1.08;;;;;;;3.87;63.91;98207.84;4919682;29;20032;-69
2022/01/05 13:32:27;;;;;;;0.70;0.70;;;;;;;4.01;62.42;98207.81;4919410;29;20099;-72
2022/01/05 13:35:06;;;;;;;0.57;0.57;;;;;;;4.09;61.62;98198.41;4919296;29;20036;-70
2022/01/05 13:37:52;;;;;;;0.50;0.50;;;;;;;3.71;62.68;98212.09;4911247;29;20016;-72
2022/01/05 13:40:20;;;;;;;0.50;0.50;;;;;;;3.86;63.58;98216.38;4917730;29;20373;-70
2022/01/05 13:42:58;;;;;;;4.38;1.75;;;;;;;3.86;64.14;98218.94;4910511;29;20167;-72
2022/01/05 13:45:34;;;;;;;0.50;0.50;;;;;;;3.62;63.38;98212.09;4918299;29;20516;-71
2022/01/05 13:48:04;;;;;;;2.47;1.27;;;;;;;3.40;63.76;98215.50;4918914;29;20051;-77
2022/01/05 13:50:32;;;;;;;0.50;0.50;;;;;;;3.58;63.02;98215.53;4918957;29;20062;-76
2022/01/05 13:53:02;;;;;;;0.50;0.50;;;;;;;3.89;62.03;98215.53;4918930;29;20405;-71
2022/01/05 13:55:35;;;;;;;1.25;1.15;;;;;;;4.10;60.60;98215.50;4919036;29;20028;-71
2022/01/05 13:58:07;;;;;;;0.60;0.60;;;;;;;4.14;60.53;98217.19;4918564;29;20385;-71
2022/01/05 14:00:33;;;;;;;0.70;0.70;;;;;;;3.97;58.98;98224.06;4918817;29;20043;-71
2022/01/05 14:02:59;;;;;;;0.60;0.60;;;;;;;3.82;60.64;98227.47;4918807;29;20075;-71
2022/01/05 14:05:25;;;;;;;0.60;0.60;;;;;;;3.91;62.07;98231.75;4918837;29;20024;-71
2022/01/05 14:08:05;;;;;;;0.50;0.50;;;;;;;3.77;63.51;98226.63;4908081;29;20031;-69
2022/01/05 14:10:33;;;;;;;0.60;0.60;;;;;;;3.64;62.84;98230.06;4881139;29;20483;-70
2022/01/05 14:13:01;;;;;;;5.47;2.05;;;;;;;3.82;63.82;98228.34;4906634;29;20041;-77
2022/01/05 14:15:27;;;;;;;7.20;1.63;;;;;;;3.70;62.95;98230.91;4918263;29;20035;-77
2022/01/05 14:18:00;;;;;;;0.40;0.40;;;;;;;3.73;61.35;98236.03;4918358;29;20020;-76
2022/01/05 14:20:26;;;;;;;0.50;0.50;;;;;;;3.82;62.55;98240.28;4918533;29;20040;-79
2022/01/05 14:23:01;;;;;;;0.60;0.60;;;;;;;3.66;63.25;98254.78;4918373;29;20024;-72
2022/01/05 14:26:00;;;;;;;0.75;0.75;;;;;;;3.49;62.44;98251.38;4918584;29;20393;-72
2022/01/05 14:28:31;;;;;;;0.60;0.60;;;;;;;3.44;63.37;98253.94;4918448;29;20095;-72
2022/01/05 14:31:10;;;;;;;0.60;0.60;;;;;;;3.48;63.80;98265.00;4918188;29;20119;-72
2022/01/05 14:33:40;;;;;;;0.52;0.52;;;;;;;3.38;63.76;98271.81;4918190;29;20069;-72
2022/01/05 14:36:18;;;;;;;0.68;0.68;;;;;;;3.20;64.80;98274.34;4913915;29;20040;-72
2022/01/05 14:38:55;;;;;;;0.50;0.50;;;;;;;3.04;64.01;98278.53;4910173;29;20071;-72
2022/01/05 14:41:28;;;;;;;0.68;0.68;;;;;;;3.04;64.70;98273.41;4915087;29;20055;-72
2022/01/05 14:44:06;;;;;;;0.95;0.93;;;;;;;3.13;65.74;98277.72;4909896;29;20083;-71
2022/01/05 14:46:32;;;;;;;1.13;1.13;;;;;;;2.98;65.28;98279.38;4917877;29;20028;-71
2022/01/05 14:48:58;;;;;;;0.40;0.40;;;;;;;3.03;64.93;98287.06;4917929;29;20028;-71
2022/01/05 14:51:24;;;;;;;0.85;0.85;;;;;;;2.83;65.34;98290.41;4918060;29;20028;-70
2022/01/05 14:53:49;;;;;;;0.50;0.50;;;;;;;2.84;63.34;98292.09;4917989;29;20090;-71
2022/01/05 14:56:15;;;;;;;0.60;0.60;;;;;;;2.64;62.34;98305.66;4917515;29;20024;-71
2022/01/05 14:58:40;;;;;;;1.17;1.17;;;;;;;2.56;63.41;98305.59;4917835;29;20056;-71
2022/01/05 15:01:06;;;;;;;0.50;0.50;;;;;;;2.63;64.25;98317.56;4917625;29;20046;-71
2022/01/05 15:03:31;;;;;;;0.75;0.75;;;;;;;2.60;64.85;98322.66;4917794;29;20144;-71
2022/01/05 15:05:57;;;;;;;0.60;0.60;;;;;;;2.54;62.63;98325.19;4914074;29;20043;-71
2022/01/05 15:08:22;;;;;;;1.13;1.13;;;;;;;2.64;63.64;98339.75;4908941;29;20025;-70
2022/01/05 15:10:48;;;;;;;0.70;0.70;;;;;;;2.54;64.44;98332.84;4916489;29;20336;-71
2022/01/05 15:13:14;;;;;;;0.80;0.80;;;;;;;2.45;63.56;98333.66;4907454;29;20551;-70
2022/01/05 15:15:40;;;;;;;0.55;0.55;;;;;;;2.55;65.18;98330.31;4917652;29;20028;-70
2022/01/05 15:18:06;;;;;;;0.57;0.57;;;;;;;2.40;65.18;98335.31;4917544;29;20079;-71
2022/01/05 15:20:31;;;;;;;1.00;1.00;;;;;;;2.41;64.55;98325.94;4917341;29;20388;-70
2022/01/05 15:22:57;;;;;;;1.33;1.20;;;;;;;2.48;65.53;98335.38;4917430;29;20430;-71
2022/01/05 15:25:25;;;;;;;0.73;0.73;;;;;;;2.47;64.87;98331.13;4917335;29;20020;-71
2022/01/05 15:27:50;;;;;;;1.05;1.00;;;;;;;2.46;66.28;98337.06;4917373;29;20418;-71
2022/01/05 15:30:16;;;;;;;0.60;0.60;;;;;;;2.45;64.76;98335.34;4917165;29;20122;-70
2022/01/05 15:32:42;;;;;;;0.50;0.50;;;;;;;2.45;65.65;98335.34;4917115;29;20390;-70
2022/01/05 15:35:07;;;;;;;0.50;0.50;;;;;;;2.37;65.75;98329.31;4917224;29;20036;-71
2022/01/05 15:37:32;;;;;;;0.60;0.60;;;;;;;2.38;64.51;98336.16;4908744;29;20025;-71
2022/01/05 15:39:58;;;;;;;0.60;0.60;;;;;;;2.37;65.51;98339.53;4912920;29;20457;-71
2022/01/05 15:42:23;;;;;;;3.95;0.93;;;;;;;2.44;65.23;98346.44;4911280;29;20198;-71
2022/01/05 15:44:48;;;;;;;0.65;0.65;;;;;;;2.40;65.27;98354.91;4911763;29;20060;-71
2022/01/05 15:47:14;;;;;;;0.85;0.85;;;;;;;2.36;65.48;98350.63;4916715;29;20111;-70
2022/01/05 15:49:40;;;;;;;0.60;0.60;;;;;;;2.42;66.23;98358.31;4916987;29;20052;-71
2022/01/05 15:52:06;;;;;;;0.80;0.80;;;;;;;2.48;66.64;98351.56;4916237;29;20036;-71
2022/01/05 15:54:31;;;;;;;0.77;0.77;;;;;;;2.51;65.60;98353.28;4916852;29;20024;-70
2022/01/05 15:57:11;;;;;;;2.05;0.80;;;;;;;2.44;65.74;98352.41;4916346;29;20339;-72
2022/01/05 16:02:20;;;;;;;0.70;0.70;;;;;;;2.54;66.22;98358.44;4916979;29;19918;-70
2022/01/05 16:04:46;;;;;;;1.33;1.33;;;;;;;2.49;66.07;98355.84;4916725;29;20032;-71
2022/01/05 16:07:13;;;;;;;0.50;0.50;;;;;;;2.50;66.03;98361.81;4910958;29;20106;-71
2022/01/05 16:09:39;;;;;;;0.50;0.50;;;;;;;2.59;67.23;98356.75;4909846;29;20036;-71
2022/01/05 16:12:04;;;;;;;0.63;0.63;;;;;;;2.62;66.17;98361.91;4927617;29;20035;-71
2022/01/05 16:14:30;;;;;;;2.55;2.38;;;;;;;2.61;67.53;98357.66;4908848;29;20040;-71
2022/01/05 16:16:55;;;;;;;0.50;0.50;;;;;;;2.64;67.18;98360.19;4916202;29;20031;-71
2022/01/05 16:19:20;;;;;;;0.55;0.55;;;;;;;2.53;65.70;98352.47;4916254;29;20043;-71
2022/01/05 16:21:46;;;;;;;1.77;1.65;;;;;;;2.47;66.68;98361.81;4916368;29;20031;-71